sensor_id;sensor_type;location;lat;lon;timestamp;P1;durP1;ratioP1;P2;durP2;ratioP2
65543;SDS011;52173;45.204;39.240;2022-08-01T00:01:04;13.18;;;7.47;;
65543;SDS011;52173;45.204;39.240;2022-08-01T00:03:30;14.45;;;7.38;;
65543;SDS011;52173;45.204;39.240;2022-08-01T00:05:57;14.82;;;7.20;;
65543;SDS011;52173;45.204;39.240;2022-08-01T00:08:23;14.60;;;7.00;;
65543;SDS011;52173;45.204;39.240;2022-08-01T00:10:50;8.90;;;7.22;;
65543;SDS011;52173;45.204;39.240;2022-08-01T00:13:16;14.82;;;7.80;;
65543;SDS011;52173;45.204;39.240;2022-08-01T00:15:42;12.80;;;7.93;;
65543;SDS011;52173;45.204;39.240;2022-08-01T00:18:08;10.48;;;7.05;;
65543;SDS011;52173;45.204;39.240;2022-08-01T00:20:35;12.43;;;7.70;;
65543;SDS011;52173;45.204;39.240;2022-08-01T00:23:04;12.50;;;8.63;;
65543;SDS011;52173;45.204;39.240;2022-08-01T00:25:30;10.32;;;7.70;;
65543;SDS011;52173;45.204;39.240;2022-08-01T00:27:56;14.88;;;8.65;;
65543;SDS011;52173;45.204;39.240;2022-08-01T00:30:23;13.20;;;7.60;;
65543;SDS011;52173;45.204;39.240;2022-08-01T00:32:49;11.15;;;7.75;;
65543;SDS011;52173;45.204;39.240;2022-08-01T00:35:15;11.73;;;8.02;;
65543;SDS011;52173;45.204;39.240;2022-08-01T00:37:41;15.98;;;8.82;;
65543;SDS011;52173;45.204;39.240;2022-08-01T00:40:09;13.57;;;8.38;;
65543;SDS011;52173;45.204;39.240;2022-08-01T00:42:35;15.75;;;8.90;;
65543;SDS011;52173;45.204;39.240;2022-08-01T00:45:02;16.30;;;8.82;;
65543;SDS011;52173;45.204;39.240;2022-08-01T00:47:28;13.35;;;8.50;;
65543;SDS011;52173;45.204;39.240;2022-08-01T00:49:54;15.35;;;8.90;;
65543;SDS011;52173;45.204;39.240;2022-08-01T00:52:20;12.98;;;8.48;;
65543;SDS011;52173;45.204;39.240;2022-08-01T00:54:47;15.52;;;9.32;;
65543;SDS011;52173;45.204;39.240;2022-08-01T00:57:13;12.60;;;9.02;;
65543;SDS011;52173;45.204;39.240;2022-08-01T00:59:40;17.15;;;8.57;;
65543;SDS011;52173;45.204;39.240;2022-08-01T01:02:06;14.60;;;8.63;;
65543;SDS011;52173;45.204;39.240;2022-08-01T01:04:33;15.18;;;8.63;;
65543;SDS011;52173;45.204;39.240;2022-08-01T01:09:52;14.73;;;8.90;;
65543;SDS011;52173;45.204;39.240;2022-08-01T01:12:37;14.77;;;8.80;;
65543;SDS011;52173;45.204;39.240;2022-08-01T01:17:46;13.38;;;9.10;;
65543;SDS011;52173;45.204;39.240;2022-08-01T01:20:20;16.65;;;9.07;;
65543;SDS011;52173;45.204;39.240;2022-08-01T01:30:41;15.13;;;9.15;;
65543;SDS011;52173;45.204;39.240;2022-08-01T01:33:10;11.52;;;8.55;;
65543;SDS011;52173;45.204;39.240;2022-08-01T01:35:48;15.48;;;9.02;;
65543;SDS011;52173;45.204;39.240;2022-08-01T01:38:22;11.73;;;9.32;;
65543;SDS011;52173;45.204;39.240;2022-08-01T01:40:52;15.60;;;9.05;;
65543;SDS011;52173;45.204;39.240;2022-08-01T01:43:20;12.93;;;9.00;;
65543;SDS011;52173;45.204;39.240;2022-08-01T01:45:48;13.95;;;9.07;;
65543;SDS011;52173;45.204;39.240;2022-08-01T01:48:19;12.90;;;9.57;;
65543;SDS011;52173;45.204;39.240;2022-08-01T01:50:47;12.60;;;9.27;;
65543;SDS011;52173;45.204;39.240;2022-08-01T01:53:15;14.73;;;9.65;;
65543;SDS011;52173;45.204;39.240;2022-08-01T01:55:46;17.67;;;9.73;;
65543;SDS011;52173;45.204;39.240;2022-08-01T01:58:14;14.05;;;9.40;;
65543;SDS011;52173;45.204;39.240;2022-08-01T02:00:42;14.70;;;9.38;;
65543;SDS011;52173;45.204;39.240;2022-08-01T02:03:11;15.82;;;9.45;;
65543;SDS011;52173;45.204;39.240;2022-08-01T02:05:40;14.50;;;9.27;;
65543;SDS011;52173;45.204;39.240;2022-08-01T02:08:07;13.27;;;10.32;;
65543;SDS011;52173;45.204;39.240;2022-08-01T02:10:36;15.60;;;10.50;;
65543;SDS011;52173;45.204;39.240;2022-08-01T02:13:05;18.52;;;10.35;;
65543;SDS011;52173;45.204;39.240;2022-08-01T02:15:32;12.35;;;9.27;;
65543;SDS011;52173;45.204;39.240;2022-08-01T02:18:03;14.02;;;9.57;;
65543;SDS011;52173;45.204;39.240;2022-08-01T02:20:31;12.90;;;9.68;;
65543;SDS011;52173;45.204;39.240;2022-08-01T02:23:11;17.58;;;9.43;;
65543;SDS011;52173;45.204;39.240;2022-08-01T02:28:13;14.60;;;10.18;;
65543;SDS011;52173;45.204;39.240;2022-08-01T02:30:46;23.17;;;10.13;;
65543;SDS011;52173;45.204;39.240;2022-08-01T02:35:54;15.38;;;9.60;;
65543;SDS011;52173;45.204;39.240;2022-08-01T02:38:24;13.88;;;10.43;;
65543;SDS011;52173;45.204;39.240;2022-08-01T02:40:53;12.55;;;9.15;;
65543;SDS011;52173;45.204;39.240;2022-08-01T02:43:24;17.33;;;9.65;;
65543;SDS011;52173;45.204;39.240;2022-08-01T02:45:55;16.23;;;9.25;;
65543;SDS011;52173;45.204;39.240;2022-08-01T02:48:26;23.60;;;9.63;;
65543;SDS011;52173;45.204;39.240;2022-08-01T02:50:57;17.60;;;9.77;;
65543;SDS011;52173;45.204;39.240;2022-08-01T02:53:26;15.10;;;9.43;;
65543;SDS011;52173;45.204;39.240;2022-08-01T02:55:54;19.50;;;10.30;;
65543;SDS011;52173;45.204;39.240;2022-08-01T02:58:22;13.75;;;9.70;;
65543;SDS011;52173;45.204;39.240;2022-08-01T03:00:49;15.68;;;9.52;;
65543;SDS011;52173;45.204;39.240;2022-08-01T03:03:16;13.50;;;8.88;;
65543;SDS011;52173;45.204;39.240;2022-08-01T03:05:43;14.43;;;9.07;;
65543;SDS011;52173;45.204;39.240;2022-08-01T03:08:11;14.20;;;8.85;;
65543;SDS011;52173;45.204;39.240;2022-08-01T03:10:39;11.60;;;8.27;;
65543;SDS011;52173;45.204;39.240;2022-08-01T03:13:07;10.15;;;8.30;;
65543;SDS011;52173;45.204;39.240;2022-08-01T03:15:36;15.65;;;9.18;;
65543;SDS011;52173;45.204;39.240;2022-08-01T03:18:05;12.63;;;8.38;;
65543;SDS011;52173;45.204;39.240;2022-08-01T03:20:34;13.05;;;8.40;;
65543;SDS011;52173;45.204;39.240;2022-08-01T03:23:01;14.98;;;8.93;;
65543;SDS011;52173;45.204;39.240;2022-08-01T03:25:31;11.95;;;8.88;;
65543;SDS011;52173;45.204;39.240;2022-08-01T03:28:02;12.48;;;8.05;;
65543;SDS011;52173;45.204;39.240;2022-08-01T03:30:31;19.45;;;8.93;;
65543;SDS011;52173;45.204;39.240;2022-08-01T03:32:59;16.48;;;7.95;;
65543;SDS011;52173;45.204;39.240;2022-08-01T03:35:36;20.77;;;9.18;;
65543;SDS011;52173;45.204;39.240;2022-08-01T03:38:07;13.27;;;8.43;;
65543;SDS011;52173;45.204;39.240;2022-08-01T03:40:41;12.10;;;8.25;;
65543;SDS011;52173;45.204;39.240;2022-08-01T03:43:14;12.70;;;7.57;;
65543;SDS011;52173;45.204;39.240;2022-08-01T03:45:46;15.27;;;7.28;;
65543;SDS011;52173;45.204;39.240;2022-08-01T03:48:16;11.90;;;7.68;;
65543;SDS011;52173;45.204;39.240;2022-08-01T03:50:47;41.55;;;8.35;;
65543;SDS011;52173;45.204;39.240;2022-08-01T03:53:19;16.23;;;6.93;;
65543;SDS011;52173;45.204;39.240;2022-08-01T03:55:48;19.05;;;7.40;;
65543;SDS011;52173;45.204;39.240;2022-08-01T03:58:16;12.93;;;7.45;;
65543;SDS011;52173;45.204;39.240;2022-08-01T04:00:43;15.45;;;7.38;;
65543;SDS011;52173;45.204;39.240;2022-08-01T04:03:10;14.55;;;7.93;;
65543;SDS011;52173;45.204;39.240;2022-08-01T04:05:41;14.23;;;7.95;;
65543;SDS011;52173;45.204;39.240;2022-08-01T04:08:08;11.73;;;7.50;;
65543;SDS011;52173;45.204;39.240;2022-08-01T04:10:35;11.27;;;7.13;;
65543;SDS011;52173;45.204;39.240;2022-08-01T04:13:03;14.52;;;7.22;;
65543;SDS011;52173;45.204;39.240;2022-08-01T04:15:29;10.15;;;7.38;;
65543;SDS011;52173;45.204;39.240;2022-08-01T04:17:55;11.57;;;7.15;;
65543;SDS011;52173;45.204;39.240;2022-08-01T04:20:21;10.82;;;7.43;;
65543;SDS011;52173;45.204;39.240;2022-08-01T04:22:48;15.00;;;7.28;;
65543;SDS011;52173;45.204;39.240;2022-08-01T04:25:19;12.55;;;7.35;;
65543;SDS011;52173;45.204;39.240;2022-08-01T04:28:56;14.10;;;7.53;;
65543;SDS011;52173;45.204;39.240;2022-08-01T04:31:22;10.30;;;6.97;;
65543;SDS011;52173;45.204;39.240;2022-08-01T04:33:51;17.77;;;8.18;;
65543;SDS011;52173;45.204;39.240;2022-08-01T04:36:21;14.25;;;7.35;;
65543;SDS011;52173;45.204;39.240;2022-08-01T04:38:50;15.00;;;7.03;;
65543;SDS011;52173;45.204;39.240;2022-08-01T04:41:21;11.70;;;6.63;;
65543;SDS011;52173;45.204;39.240;2022-08-01T04:43:49;14.50;;;7.57;;
65543;SDS011;52173;45.204;39.240;2022-08-01T04:46:16;14.48;;;7.03;;
65543;SDS011;52173;45.204;39.240;2022-08-01T04:48:44;14.48;;;7.38;;
65543;SDS011;52173;45.204;39.240;2022-08-01T04:51:12;14.80;;;7.53;;
65543;SDS011;52173;45.204;39.240;2022-08-01T04:53:43;11.93;;;7.03;;
65543;SDS011;52173;45.204;39.240;2022-08-01T04:56:11;18.70;;;7.07;;
65543;SDS011;52173;45.204;39.240;2022-08-01T04:58:41;12.65;;;6.78;;
65543;SDS011;52173;45.204;39.240;2022-08-01T05:01:08;15.02;;;7.07;;
65543;SDS011;52173;45.204;39.240;2022-08-01T05:03:36;14.65;;;6.55;;
65543;SDS011;52173;45.204;39.240;2022-08-01T05:06:02;16.00;;;6.70;;
65543;SDS011;52173;45.204;39.240;2022-08-01T05:08:29;16.52;;;6.78;;
65543;SDS011;52173;45.204;39.240;2022-08-01T05:10:55;17.42;;;6.85;;
65543;SDS011;52173;45.204;39.240;2022-08-01T05:13:22;12.65;;;6.70;;
65543;SDS011;52173;45.204;39.240;2022-08-01T05:15:48;15.05;;;7.00;;
65543;SDS011;52173;45.204;39.240;2022-08-01T05:18:14;14.75;;;6.47;;
65543;SDS011;52173;45.204;39.240;2022-08-01T05:20:41;11.05;;;6.63;;
65543;SDS011;52173;45.204;39.240;2022-08-01T05:23:08;19.10;;;6.97;;
65543;SDS011;52173;45.204;39.240;2022-08-01T05:25:34;16.60;;;7.18;;
65543;SDS011;52173;45.204;39.240;2022-08-01T05:28:00;19.10;;;6.63;;
65543;SDS011;52173;45.204;39.240;2022-08-01T05:30:26;14.23;;;6.18;;
65543;SDS011;52173;45.204;39.240;2022-08-01T05:32:53;20.50;;;6.53;;
65543;SDS011;52173;45.204;39.240;2022-08-01T05:35:19;19.17;;;6.53;;
65543;SDS011;52173;45.204;39.240;2022-08-01T05:37:45;18.90;;;6.93;;
65543;SDS011;52173;45.204;39.240;2022-08-01T05:40:11;11.18;;;6.43;;
65543;SDS011;52173;45.204;39.240;2022-08-01T05:42:37;11.93;;;6.32;;
65543;SDS011;52173;45.204;39.240;2022-08-01T05:45:04;13.23;;;7.10;;
65543;SDS011;52173;45.204;39.240;2022-08-01T05:47:30;19.80;;;6.57;;
65543;SDS011;52173;45.204;39.240;2022-08-01T05:49:57;13.63;;;6.13;;
65543;SDS011;52173;45.204;39.240;2022-08-01T05:52:23;10.07;;;6.57;;
65543;SDS011;52173;45.204;39.240;2022-08-01T05:54:49;14.75;;;6.25;;
65543;SDS011;52173;45.204;39.240;2022-08-01T05:57:15;10.48;;;5.82;;
65543;SDS011;52173;45.204;39.240;2022-08-01T05:59:41;15.13;;;6.13;;
65543;SDS011;52173;45.204;39.240;2022-08-01T06:02:08;16.80;;;5.88;;
65543;SDS011;52173;45.204;39.240;2022-08-01T06:04:34;18.30;;;6.68;;
65543;SDS011;52173;45.204;39.240;2022-08-01T06:07:00;14.80;;;6.35;;
65543;SDS011;52173;45.204;39.240;2022-08-01T06:09:26;20.50;;;6.53;;
65543;SDS011;52173;45.204;39.240;2022-08-01T06:11:53;111.38;;;11.05;;
65543;SDS011;52173;45.204;39.240;2022-08-01T06:14:19;13.35;;;6.43;;
65543;SDS011;52173;45.204;39.240;2022-08-01T06:16:45;10.85;;;5.70;;
65543;SDS011;52173;45.204;39.240;2022-08-01T06:19:11;13.05;;;5.82;;
65543;SDS011;52173;45.204;39.240;2022-08-01T06:21:37;17.08;;;6.43;;
65543;SDS011;52173;45.204;39.240;2022-08-01T06:24:04;15.18;;;6.85;;
65543;SDS011;52173;45.204;39.240;2022-08-01T06:26:30;31.05;;;7.20;;
65543;SDS011;52173;45.204;39.240;2022-08-01T06:28:56;16.02;;;6.25;;
65543;SDS011;52173;45.204;39.240;2022-08-01T06:31:23;11.93;;;6.03;;
65543;SDS011;52173;45.204;39.240;2022-08-01T06:33:49;59.88;;;8.25;;
65543;SDS011;52173;45.204;39.240;2022-08-01T06:36:15;13.45;;;5.88;;
65543;SDS011;52173;45.204;39.240;2022-08-01T06:38:41;12.30;;;6.05;;
65543;SDS011;52173;45.204;39.240;2022-08-01T06:41:08;9.15;;;5.82;;
65543;SDS011;52173;45.204;39.240;2022-08-01T06:43:34;12.90;;;5.97;;
65543;SDS011;52173;45.204;39.240;2022-08-01T06:46:00;9.02;;;5.50;;
65543;SDS011;52173;45.204;39.240;2022-08-01T06:48:26;10.35;;;5.63;;
65543;SDS011;52173;45.204;39.240;2022-08-01T06:50:53;15.45;;;5.47;;
65543;SDS011;52173;45.204;39.240;2022-08-01T06:53:35;10.13;;;5.55;;
65543;SDS011;52173;45.204;39.240;2022-08-01T06:56:03;10.18;;;5.28;;
65543;SDS011;52173;45.204;39.240;2022-08-01T06:58:30;8.27;;;5.63;;
65543;SDS011;52173;45.204;39.240;2022-08-01T07:00:56;12.98;;;5.40;;
65543;SDS011;52173;45.204;39.240;2022-08-01T07:03:23;12.40;;;4.95;;
65543;SDS011;52173;45.204;39.240;2022-08-01T07:05:49;10.40;;;5.05;;
65543;SDS011;52173;45.204;39.240;2022-08-01T07:08:15;10.60;;;5.30;;
65543;SDS011;52173;45.204;39.240;2022-08-01T07:10:42;12.45;;;5.07;;
65543;SDS011;52173;45.204;39.240;2022-08-01T07:13:08;12.93;;;5.85;;
65543;SDS011;52173;45.204;39.240;2022-08-01T07:15:35;21.75;;;14.00;;
65543;SDS011;52173;45.204;39.240;2022-08-01T07:18:01;41.75;;;14.63;;
65543;SDS011;52173;45.204;39.240;2022-08-01T07:20:29;19.20;;;12.77;;
65543;SDS011;52173;45.204;39.240;2022-08-01T07:22:55;10.85;;;6.05;;
65543;SDS011;52173;45.204;39.240;2022-08-01T07:25:21;22.13;;;10.18;;
65543;SDS011;52173;45.204;39.240;2022-08-01T07:27:48;11.23;;;6.93;;
65543;SDS011;52173;45.204;39.240;2022-08-01T07:30:15;10.98;;;5.10;;
65543;SDS011;52173;45.204;39.240;2022-08-01T07:32:41;10.98;;;5.30;;
65543;SDS011;52173;45.204;39.240;2022-08-01T07:35:07;18.67;;;8.30;;
65543;SDS011;52173;45.204;39.240;2022-08-01T07:37:34;8.88;;;6.07;;
65543;SDS011;52173;45.204;39.240;2022-08-01T07:40:00;11.73;;;5.38;;
65543;SDS011;52173;45.204;39.240;2022-08-01T07:42:29;9.15;;;5.43;;
65543;SDS011;52173;45.204;39.240;2022-08-01T07:44:55;16.67;;;6.53;;
65543;SDS011;52173;45.204;39.240;2022-08-01T07:47:25;11.75;;;5.13;;
65543;SDS011;52173;45.204;39.240;2022-08-01T07:49:52;14.35;;;5.88;;
65543;SDS011;52173;45.204;39.240;2022-08-01T07:54:52;12.50;;;5.70;;
65543;SDS011;52173;45.204;39.240;2022-08-01T07:57:18;92.28;;;9.52;;
65543;SDS011;52173;45.204;39.240;2022-08-01T07:59:45;10.38;;;5.45;;
65543;SDS011;52173;45.204;39.240;2022-08-01T08:02:11;18.83;;;8.00;;
65543;SDS011;52173;45.204;39.240;2022-08-01T08:04:37;9.40;;;5.38;;
65543;SDS011;52173;45.204;39.240;2022-08-01T08:07:04;8.45;;;5.18;;
65543;SDS011;52173;45.204;39.240;2022-08-01T08:09:30;12.88;;;5.78;;
65543;SDS011;52173;45.204;39.240;2022-08-01T08:11:56;15.50;;;6.22;;
65543;SDS011;52173;45.204;39.240;2022-08-01T08:14:23;11.10;;;6.07;;
65543;SDS011;52173;45.204;39.240;2022-08-01T08:16:50;8.13;;;5.45;;
65543;SDS011;52173;45.204;39.240;2022-08-01T08:19:16;10.43;;;5.13;;
65543;SDS011;52173;45.204;39.240;2022-08-01T08:21:43;11.85;;;6.00;;
65543;SDS011;52173;45.204;39.240;2022-08-01T08:24:09;19.15;;;6.50;;
65543;SDS011;52173;45.204;39.240;2022-08-01T08:26:48;10.35;;;5.38;;
65543;SDS011;52173;45.204;39.240;2022-08-01T08:29:18;12.63;;;4.72;;
65543;SDS011;52173;45.204;39.240;2022-08-01T08:31:45;8.80;;;4.90;;
65543;SDS011;52173;45.204;39.240;2022-08-01T08:34:12;9.55;;;6.43;;
65543;SDS011;52173;45.204;39.240;2022-08-01T08:36:38;14.55;;;5.40;;
65543;SDS011;52173;45.204;39.240;2022-08-01T08:39:04;8.05;;;5.10;;
65543;SDS011;52173;45.204;39.240;2022-08-01T08:41:34;11.93;;;5.13;;
65543;SDS011;52173;45.204;39.240;2022-08-01T08:44:04;8.07;;;4.10;;
65543;SDS011;52173;45.204;39.240;2022-08-01T08:46:32;13.75;;;6.50;;
65543;SDS011;52173;45.204;39.240;2022-08-01T08:49:00;10.90;;;5.65;;
65543;SDS011;52173;45.204;39.240;2022-08-01T08:51:32;9.15;;;4.93;;
65543;SDS011;52173;45.204;39.240;2022-08-01T08:54:03;15.20;;;7.53;;
65543;SDS011;52173;45.204;39.240;2022-08-01T08:56:31;11.13;;;5.15;;
65543;SDS011;52173;45.204;39.240;2022-08-01T08:59:00;18.35;;;5.00;;
65543;SDS011;52173;45.204;39.240;2022-08-01T09:01:26;11.60;;;5.07;;
65543;SDS011;52173;45.204;39.240;2022-08-01T09:03:53;10.68;;;4.93;;
65543;SDS011;52173;45.204;39.240;2022-08-01T09:06:19;13.35;;;5.20;;
65543;SDS011;52173;45.204;39.240;2022-08-01T09:08:46;10.20;;;4.47;;
65543;SDS011;52173;45.204;39.240;2022-08-01T09:11:12;6.93;;;4.65;;
65543;SDS011;52173;45.204;39.240;2022-08-01T09:13:38;7.80;;;5.00;;
65543;SDS011;52173;45.204;39.240;2022-08-01T09:16:05;10.00;;;5.25;;
65543;SDS011;52173;45.204;39.240;2022-08-01T09:18:35;8.57;;;5.03;;
65543;SDS011;52173;45.204;39.240;2022-08-01T09:23:32;8.57;;;4.70;;
65543;SDS011;52173;45.204;39.240;2022-08-01T09:26:00;14.60;;;4.80;;
65543;SDS011;52173;45.204;39.240;2022-08-01T09:28:27;7.82;;;4.63;;
65543;SDS011;52173;45.204;39.240;2022-08-01T09:30:55;9.68;;;5.00;;
65543;SDS011;52173;45.204;39.240;2022-08-01T09:33:22;10.27;;;4.28;;
65543;SDS011;52173;45.204;39.240;2022-08-01T09:35:55;8.20;;;5.18;;
65543;SDS011;52173;45.204;39.240;2022-08-01T09:38:23;9.40;;;5.00;;
65543;SDS011;52173;45.204;39.240;2022-08-01T09:40:54;9.52;;;4.70;;
65543;SDS011;52173;45.204;39.240;2022-08-01T09:43:21;9.63;;;4.47;;
65543;SDS011;52173;45.204;39.240;2022-08-01T09:45:49;11.60;;;4.93;;
65543;SDS011;52173;45.204;39.240;2022-08-01T09:48:15;7.10;;;4.40;;
65543;SDS011;52173;45.204;39.240;2022-08-01T09:50:43;7.60;;;4.70;;
65543;SDS011;52173;45.204;39.240;2022-08-01T09:53:11;9.50;;;5.22;;
65543;SDS011;52173;45.204;39.240;2022-08-01T09:55:39;99.53;;;7.97;;
65543;SDS011;52173;45.204;39.240;2022-08-01T09:58:06;12.30;;;5.38;;
65543;SDS011;52173;45.204;39.240;2022-08-01T10:00:33;8.30;;;5.10;;
65543;SDS011;52173;45.204;39.240;2022-08-01T10:03:18;8.70;;;5.18;;
65543;SDS011;52173;45.204;39.240;2022-08-01T10:05:45;15.68;;;5.03;;
65543;SDS011;52173;45.204;39.240;2022-08-01T10:08:13;6.93;;;4.88;;
65543;SDS011;52173;45.204;39.240;2022-08-01T10:10:39;15.90;;;4.90;;
65543;SDS011;52173;45.204;39.240;2022-08-01T10:13:06;8.13;;;4.90;;
65543;SDS011;52173;45.204;39.240;2022-08-01T10:15:34;8.70;;;3.80;;
65543;SDS011;52173;45.204;39.240;2022-08-01T10:18:01;7.60;;;4.50;;
65543;SDS011;52173;45.204;39.240;2022-08-01T10:20:32;32.25;;;6.50;;
65543;SDS011;52173;45.204;39.240;2022-08-01T10:23:00;9.30;;;6.15;;
65543;SDS011;52173;45.204;39.240;2022-08-01T10:25:30;8.13;;;5.45;;
65543;SDS011;52173;45.204;39.240;2022-08-01T10:28:01;13.55;;;6.63;;
65543;SDS011;52173;45.204;39.240;2022-08-01T10:30:33;11.02;;;6.82;;
65543;SDS011;52173;45.204;39.240;2022-08-01T10:33:00;12.20;;;7.95;;
65543;SDS011;52173;45.204;39.240;2022-08-01T10:35:26;9.00;;;6.38;;
65543;SDS011;52173;45.204;39.240;2022-08-01T10:37:53;12.82;;;7.57;;
65543;SDS011;52173;45.204;39.240;2022-08-01T10:40:23;15.00;;;7.63;;
65543;SDS011;52173;45.204;39.240;2022-08-01T10:42:50;18.25;;;7.25;;
65543;SDS011;52173;45.204;39.240;2022-08-01T10:45:17;9.80;;;7.43;;
65543;SDS011;52173;45.204;39.240;2022-08-01T10:47:59;11.32;;;7.20;;
65543;SDS011;52173;45.204;39.240;2022-08-01T10:50:32;11.82;;;8.10;;
65543;SDS011;52173;45.204;39.240;2022-08-01T10:53:07;15.02;;;7.82;;
65543;SDS011;52173;45.204;39.240;2022-08-01T10:55:46;11.45;;;7.82;;
65543;SDS011;52173;45.204;39.240;2022-08-01T10:58:13;15.35;;;8.48;;
65543;SDS011;52173;45.204;39.240;2022-08-01T11:00:39;13.15;;;8.32;;
65543;SDS011;52173;45.204;39.240;2022-08-01T11:03:05;11.38;;;7.93;;
65543;SDS011;52173;45.204;39.240;2022-08-01T11:05:32;20.48;;;8.80;;
65543;SDS011;52173;45.204;39.240;2022-08-01T11:08:05;12.80;;;7.03;;
65543;SDS011;52173;45.204;39.240;2022-08-01T11:10:42;13.10;;;7.10;;
65543;SDS011;52173;45.204;39.240;2022-08-01T11:15:37;13.52;;;7.38;;
65543;SDS011;52173;45.204;39.240;2022-08-01T11:18:28;14.75;;;7.18;;
65543;SDS011;52173;45.204;39.240;2022-08-01T11:20:57;14.32;;;7.30;;
65543;SDS011;52173;45.204;39.240;2022-08-01T11:23:25;11.43;;;6.47;;
65543;SDS011;52173;45.204;39.240;2022-08-01T11:28:20;9.65;;;7.10;;
65543;SDS011;52173;45.204;39.240;2022-08-01T11:30:51;12.57;;;7.65;;
65543;SDS011;52173;45.204;39.240;2022-08-01T11:38:37;14.20;;;7.88;;
65543;SDS011;52173;45.204;39.240;2022-08-01T11:54:38;15.05;;;7.55;;
65543;SDS011;52173;45.204;39.240;2022-08-01T11:57:06;10.73;;;6.95;;
65543;SDS011;52173;45.204;39.240;2022-08-01T11:59:36;16.33;;;7.60;;
65543;SDS011;52173;45.204;39.240;2022-08-01T12:02:30;12.32;;;6.82;;
65543;SDS011;52173;45.204;39.240;2022-08-01T12:05:06;33.72;;;9.20;;
65543;SDS011;52173;45.204;39.240;2022-08-01T12:07:34;22.95;;;8.10;;
65543;SDS011;52173;45.204;39.240;2022-08-01T12:10:06;16.63;;;7.10;;
65543;SDS011;52173;45.204;39.240;2022-08-01T12:12:34;17.23;;;7.30;;
65543;SDS011;52173;45.204;39.240;2022-08-01T12:15:07;19.23;;;9.05;;
65543;SDS011;52173;45.204;39.240;2022-08-01T12:17:35;23.07;;;7.57;;
65543;SDS011;52173;45.204;39.240;2022-08-01T12:20:05;11.85;;;7.50;;
65543;SDS011;52173;45.204;39.240;2022-08-01T12:22:33;16.83;;;7.68;;
65543;SDS011;52173;45.204;39.240;2022-08-01T12:25:06;14.98;;;7.72;;
65543;SDS011;52173;45.204;39.240;2022-08-01T12:27:37;91.13;;;11.93;;
65543;SDS011;52173;45.204;39.240;2022-08-01T12:30:06;12.75;;;7.50;;
65543;SDS011;52173;45.204;39.240;2022-08-01T12:32:35;53.92;;;9.40;;
65543;SDS011;52173;45.204;39.240;2022-08-01T12:37:29;17.88;;;10.40;;
65543;SDS011;52173;45.204;39.240;2022-08-01T12:39:55;19.80;;;11.02;;
65543;SDS011;52173;45.204;39.240;2022-08-01T12:42:23;23.55;;;11.15;;
65543;SDS011;52173;45.204;39.240;2022-08-01T12:44:50;36.83;;;12.23;;
65543;SDS011;52173;45.204;39.240;2022-08-01T12:47:18;31.52;;;8.75;;
65543;SDS011;52173;45.204;39.240;2022-08-01T12:49:46;37.40;;;10.70;;
65543;SDS011;52173;45.204;39.240;2022-08-01T12:52:13;23.00;;;9.40;;
65543;SDS011;52173;45.204;39.240;2022-08-01T12:57:27;29.42;;;10.57;;
65543;SDS011;52173;45.204;39.240;2022-08-01T13:00:04;19.20;;;9.77;;
65543;SDS011;52173;45.204;39.240;2022-08-01T13:02:32;29.30;;;9.93;;
65543;SDS011;52173;45.204;39.240;2022-08-01T13:04:59;20.60;;;8.93;;
65543;SDS011;52173;45.204;39.240;2022-08-01T13:07:47;14.15;;;8.73;;
65543;SDS011;52173;45.204;39.240;2022-08-01T13:10:24;17.60;;;8.65;;
65543;SDS011;52173;45.204;39.240;2022-08-01T13:12:56;19.10;;;8.13;;
65543;SDS011;52173;45.204;39.240;2022-08-01T13:15:28;16.88;;;8.30;;
65543;SDS011;52173;45.204;39.240;2022-08-01T13:20:25;10.80;;;7.93;;
65543;SDS011;52173;45.204;39.240;2022-08-01T13:23:09;9.88;;;8.55;;
65543;SDS011;52173;45.204;39.240;2022-08-01T13:28:33;62.33;;;12.23;;
65543;SDS011;52173;45.204;39.240;2022-08-01T13:31:08;49.20;;;12.57;;
65543;SDS011;52173;45.204;39.240;2022-08-01T13:33:46;89.05;;;13.45;;
65543;SDS011;52173;45.204;39.240;2022-08-01T13:36:13;25.90;;;10.93;;
65543;SDS011;52173;45.204;39.240;2022-08-01T13:38:41;23.85;;;10.70;;
65543;SDS011;52173;45.204;39.240;2022-08-01T13:41:25;36.75;;;11.18;;
65543;SDS011;52173;45.204;39.240;2022-08-01T13:43:52;29.55;;;10.93;;
65543;SDS011;52173;45.204;39.240;2022-08-01T13:46:20;21.83;;;10.27;;
65543;SDS011;52173;45.204;39.240;2022-08-01T13:48:46;21.52;;;10.25;;
65543;SDS011;52173;45.204;39.240;2022-08-01T13:51:12;22.98;;;10.85;;
65543;SDS011;52173;45.204;39.240;2022-08-01T13:53:39;26.13;;;12.07;;
65543;SDS011;52173;45.204;39.240;2022-08-01T13:56:05;25.98;;;12.00;;
65543;SDS011;52173;45.204;39.240;2022-08-01T13:58:31;28.90;;;12.43;;
65543;SDS011;52173;45.204;39.240;2022-08-01T14:00:58;32.90;;;12.10;;
65543;SDS011;52173;45.204;39.240;2022-08-01T14:17:07;28.50;;;12.63;;
65543;SDS011;52173;45.204;39.240;2022-08-01T14:19:33;32.13;;;12.25;;
65543;SDS011;52173;45.204;39.240;2022-08-01T14:21:59;24.92;;;11.93;;
65543;SDS011;52173;45.204;39.240;2022-08-01T14:24:25;32.63;;;11.50;;
65543;SDS011;52173;45.204;39.240;2022-08-01T14:26:52;27.15;;;11.68;;
65543;SDS011;52173;45.204;39.240;2022-08-01T14:29:19;30.67;;;11.63;;
65543;SDS011;52173;45.204;39.240;2022-08-01T14:31:45;22.75;;;10.52;;
65543;SDS011;52173;45.204;39.240;2022-08-01T14:34:11;28.48;;;12.43;;
65543;SDS011;52173;45.204;39.240;2022-08-01T14:36:38;42.90;;;13.95;;
65543;SDS011;52173;45.204;39.240;2022-08-01T14:39:05;66.60;;;19.70;;
65543;SDS011;52173;45.204;39.240;2022-08-01T14:41:31;58.10;;;18.85;;
65543;SDS011;52173;45.204;39.240;2022-08-01T14:43:58;59.58;;;17.17;;
65543;SDS011;52173;45.204;39.240;2022-08-01T14:46:25;53.88;;;17.30;;
65543;SDS011;52173;45.204;39.240;2022-08-01T14:48:51;45.33;;;14.18;;
65543;SDS011;52173;45.204;39.240;2022-08-01T14:51:17;28.17;;;11.82;;
65543;SDS011;52173;45.204;39.240;2022-08-01T14:53:44;21.13;;;11.15;;
65543;SDS011;52173;45.204;39.240;2022-08-01T14:56:10;26.92;;;12.25;;
65543;SDS011;52173;45.204;39.240;2022-08-01T14:58:36;32.83;;;11.02;;
65543;SDS011;52173;45.204;39.240;2022-08-01T15:01:06;40.60;;;11.02;;
65543;SDS011;52173;45.204;39.240;2022-08-01T15:03:35;31.02;;;11.32;;
65543;SDS011;52173;45.204;39.240;2022-08-01T15:06:04;22.70;;;14.75;;
65543;SDS011;52173;45.204;39.240;2022-08-01T15:08:31;25.48;;;15.88;;
65543;SDS011;52173;45.204;39.240;2022-08-01T15:10:58;13.52;;;9.85;;
65543;SDS011;52173;45.204;39.240;2022-08-01T15:13:24;28.13;;;14.27;;
65543;SDS011;52173;45.204;39.240;2022-08-01T15:15:51;42.15;;;20.88;;
65543;SDS011;52173;45.204;39.240;2022-08-01T15:18:18;20.58;;;10.32;;
65543;SDS011;52173;45.204;39.240;2022-08-01T15:20:45;25.88;;;10.27;;
65543;SDS011;52173;45.204;39.240;2022-08-01T15:23:14;33.10;;;19.55;;
65543;SDS011;52173;45.204;39.240;2022-08-01T15:25:41;33.40;;;15.68;;
65543;SDS011;52173;45.204;39.240;2022-08-01T15:28:08;19.73;;;10.50;;
65543;SDS011;52173;45.204;39.240;2022-08-01T15:30:35;23.50;;;14.10;;
65543;SDS011;52173;45.204;39.240;2022-08-01T15:33:02;13.77;;;9.73;;
65543;SDS011;52173;45.204;39.240;2022-08-01T15:35:28;12.82;;;9.52;;
65543;SDS011;52173;45.204;39.240;2022-08-01T15:37:54;14.88;;;9.43;;
65543;SDS011;52173;45.204;39.240;2022-08-01T15:40:21;12.55;;;8.63;;